Stateline, NV

2:19 AM PDT on June 30, 2015 (GMT -0700)
Tahoe Cedar Rock | | Change Station
CLOSE
Current Station
Personal Weather Station
Location: Glenbrook, NV
Elevation: 6565 ft
Nearby Weather Stations

Elev 6565 ft 38.99 °N, 119.94 °W | Updated 1 minute ago

Partly Cloudy
Partly Cloudy
63.9 °F
Feels Like 63.9 °F
N
0.0
Wind Variable Wind from ESE
Gusts 2.0 mph

Today
High -- | Low -- °F
--% Chance of Precip.
Yesterday
High -- | Low -- °F
Precip. -- in
5:37 AM 8:29 PM
Waxing Gibbous, 96% visible
Pressure 30.18 in
Visibility 10.0 miles
Clouds Scattered Clouds 11000 ft
Dew Point 53 °F
Humidity 67%
Rainfall 0.00 in
Snow Depth Not available.
UV 0 out of 12
Pollen 4.80 out of 12
Air Quality Not available.
Flu Activity Sporadic
METAR KCXP 300915Z AUTO 00000KT 10SM SCT110 19/12 A3018 RMK AO2

More Conditions Fewer Conditions

Pressure 30.18 in
Visibility 10.0 miles
Clouds Scattered Clouds 11000 ft
Dew Point 53 °F
Humidity 67%
Rainfall 0.00 in
Snow Depth Not available.
UV 0 out of 12
Pollen 4.80 out of 12
Air Quality Not available.
Flu Activity Sporadic
METAR KCXP 300915Z AUTO 00000KT 10SM SCT110 19/12 A3018 RMK AO2

More Conditions Fewer Conditions

10-Day Weather Forecast

×

Almanac

Astronomy

Jun. 30, 2015 Rise Set
Actual Time
Civil Twilight
Nautical Twilight
Astronomical Twilight
Moon
Length of Visible Light
Length of Day
Tomorrow will be .
, % of the Moon is Illuminated

Today's Extremes

State Highs State Lows

Community

WunderPhotos

Upload Photos

1,833,983 photos uploaded!

WunderBlogs® & News

Nearby

Air Quality

  Air Quality AQ Index Pollutant
Not available.

Snow Depth

Station Depth Elevation

Earthquake Activity

City Distance Mag. Time & Date
Minimum magnitude displayed is 2.5.

Coastal Water Temperatures

Place Temperature

Stations

Nearby Weather Stations

Station Location Temp. Windchill Dew Point Humidity Wind Precip. Elev Updated Type